Time;durP1;ratioP1;P1;durP2;ratioP2;P2;SDS_P1;SDS_P2;PMS_P1;PMS_P2;Temp;Humidity;BMP_temperature;BMP_pressure;BME280_temperature;BME280_humidity;BME280_pressure;Samples;Min_cycle;Max_cycle;Signal;HPM_P1;HPM_P2
2022/03/09 00:01:13;;;;;;;54.85;28.95;;;;;;;7.02;56.68;100766.38;5074794;28;20500;-44
2022/03/09 00:03:39;;;;;;;53.20;31.50;;;;;;;7.07;56.72;100780.06;5074698;28;20388;-43
2022/03/09 00:06:05;;;;;;;59.15;29.60;;;;;;;7.10;56.34;100773.59;5074662;28;20137;-42
2022/03/09 00:08:31;;;;;;;56.13;29.52;;;;;;;7.04;57.06;100776.88;5074646;28;20055;-42
2022/03/09 00:10:56;;;;;;;52.20;30.02;;;;;;;6.90;58.02;100765.84;5074847;28;20028;-41
2022/03/09 00:13:22;;;;;;;58.17;30.73;;;;;;;6.96;57.91;100775.03;5073116;28;20025;-42
2022/03/09 00:15:48;;;;;;;57.13;31.05;;;;;;;6.98;58.23;100773.88;5073112;28;20031;-43
2022/03/09 00:18:14;;;;;;;52.28;29.38;;;;;;;6.83;57.56;100753.31;5074590;28;20112;-44
2022/03/09 00:20:40;;;;;;;50.72;28.73;;;;;;;6.82;58.23;100748.97;5074676;28;20037;-43
2022/03/09 00:23:06;;;;;;;56.78;31.63;;;;;;;6.97;57.92;100780.22;5073829;28;20032;-43
2022/03/09 00:25:32;;;;;;;56.90;29.02;;;;;;;6.90;57.94;100765.00;5075140;28;20071;-43
2022/03/09 00:27:57;;;;;;;58.17;30.25;;;;;;;6.93;57.83;100767.38;5074395;28;20032;-42
2022/03/09 00:30:24;;;;;;;56.65;29.65;;;;;;;6.82;58.48;100754.31;5074507;28;20040;-42
2022/03/09 00:32:49;;;;;;;56.30;30.35;;;;;;;6.86;58.28;100761.81;5073287;28;20035;-42
2022/03/09 00:35:16;;;;;;;57.08;32.10;;;;;;;6.83;59.31;100753.31;5074479;28;20036;-46
2022/03/09 00:37:41;;;;;;;47.53;27.38;;;;;;;6.83;58.53;100769.31;5074394;28;20031;-44
2022/03/09 00:40:08;;;;;;;51.55;29.42;;;;;;;6.78;58.78;100767.97;5073599;28;20025;-47
2022/03/09 00:42:36;;;;;;;52.80;30.10;;;;;;;6.71;59.84;100769.63;5073291;28;20021;-44
2022/03/09 00:45:03;;;;;;;52.38;30.42;;;;;;;6.68;59.80;100766.44;5074438;28;20052;-47
2022/03/09 00:47:29;;;;;;;55.63;31.67;;;;;;;6.63;60.25;100768.72;5074215;28;20501;-43
2022/03/09 00:49:54;;;;;;;63.45;31.88;;;;;;;6.57;59.97;100768.41;5073265;28;20035;-45
2022/03/09 00:52:20;;;;;;;64.90;31.90;;;;;;;6.48;60.01;100755.16;5072544;28;20493;-45
2022/03/09 00:54:47;;;;;;;55.35;29.90;;;;;;;6.51;59.83;100768.19;5074555;28;20044;-46
2022/03/09 00:57:13;;;;;;;58.72;31.25;;;;;;;6.52;60.50;100767.19;5074311;28;20064;-46
2022/03/09 00:59:39;;;;;;;51.85;28.20;;;;;;;6.57;59.86;100767.53;5072745;28;20480;-43
2022/03/09 01:02:05;;;;;;;57.75;30.55;;;;;;;6.54;60.03;100762.56;5074140;28;20028;-41
2022/03/09 01:04:34;;;;;;;53.47;30.33;;;;;;;6.50;60.41;100762.03;5074164;28;20104;-45
2022/03/09 01:07:00;;;;;;;50.30;29.63;;;;;;;6.57;59.86;100765.72;5072793;28;20048;-47
2022/03/09 01:09:25;;;;;;;46.33;28.45;;;;;;;6.51;61.30;100766.34;5074097;28;20032;-41
2022/03/09 01:11:51;;;;;;;57.67;28.23;;;;;;;6.48;60.66;100772.03;5072353;28;20029;-42
2022/03/09 01:14:17;;;;;;;55.45;29.63;;;;;;;6.51;61.07;100762.84;5073949;28;20051;-41
2022/03/09 01:16:43;;;;;;;58.65;29.48;;;;;;;6.57;61.29;100767.53;5073884;28;20120;-41
2022/03/09 01:19:08;;;;;;;62.42;28.95;;;;;;;6.55;62.25;100757.03;5073503;28;20120;-41
2022/03/09 01:21:34;;;;;;;49.13;29.02;;;;;;;6.65;61.49;100762.25;5073758;28;20472;-41
2022/03/09 01:24:00;;;;;;;58.88;29.67;;;;;;;6.61;61.47;100757.38;5073492;28;20086;-41
2022/03/09 01:26:26;;;;;;;49.10;28.20;;;;;;;6.59;61.43;100763.75;5055885;28;20036;-41
2022/03/09 01:28:52;;;;;;;53.92;28.02;;;;;;;6.64;60.82;100768.59;5089294;28;20039;-40
2022/03/09 01:31:19;;;;;;;59.80;30.98;;;;;;;6.69;60.90;100774.28;5072709;28;20029;-40
2022/03/09 01:33:45;;;;;;;52.42;27.25;;;;;;;6.73;61.64;100769.47;5073266;28;20029;-40
2022/03/09 01:36:11;;;;;;;57.17;28.80;;;;;;;6.75;61.04;100762.94;5074119;28;20027;-41
2022/03/09 01:38:37;;;;;;;44.42;26.13;;;;;;;6.82;60.93;100778.34;5073636;28;20033;-41
2022/03/09 01:41:03;;;;;;;57.28;29.77;;;;;;;6.85;60.90;100772.66;5073751;28;20345;-41
2022/03/09 01:43:28;;;;;;;55.42;29.55;;;;;;;6.90;61.83;100773.84;5073920;28;20094;-42
2022/03/09 01:45:54;;;;;;;57.35;30.02;;;;;;;6.85;62.27;100773.50;5072304;28;20064;-42
2022/03/09 01:48:20;;;;;;;52.03;28.00;;;;;;;6.87;61.56;100768.84;5073694;28;20060;-44
2022/03/09 01:50:46;;;;;;;50.53;26.20;;;;;;;6.87;60.90;100759.97;5071108;28;20056;-44
2022/03/09 01:53:13;;;;;;;50.28;26.75;;;;;;;6.92;61.43;100761.16;5053730;28;20051;-42
2022/03/09 01:55:39;;;;;;;49.33;25.35;;;;;;;7.05;61.59;100774.06;5036065;28;20025;-44
2022/03/09 01:58:05;;;;;;;50.92;27.75;;;;;;;7.09;61.87;100772.72;5036174;28;20029;-42
2022/03/09 02:00:31;;;;;;;49.42;27.55;;;;;;;7.11;62.73;100770.75;5053810;28;20021;-44
2022/03/09 02:02:57;;;;;;;50.88;27.58;;;;;;;7.14;62.89;100773.06;5036057;28;20407;-42
2022/03/09 02:05:23;;;;;;;53.83;27.25;;;;;;;7.21;62.28;100775.94;5053925;28;20035;-42
2022/03/09 02:10:35;;;;;;;49.75;26.17;;;;;;;7.26;62.41;100786.97;5041204;28;20523;-41
2022/03/09 02:13:00;;;;;;;48.63;26.13;;;;;;;7.25;62.44;100782.63;5057730;28;20072;-42
2022/03/09 02:15:26;;;;;;;56.72;27.27;;;;;;;7.23;62.98;100781.94;5057564;28;20049;-44
2022/03/09 02:17:52;;;;;;;48.83;26.27;;;;;;;7.13;63.11;100749.19;5039880;28;20032;-42
2022/03/09 02:20:18;;;;;;;44.55;25.45;;;;;;;7.28;63.29;100768.94;5058539;28;20032;-42
2022/03/09 02:22:44;;;;;;;50.58;26.83;;;;;;;7.25;62.95;100766.59;5058556;28;20431;-42
2022/03/09 02:25:12;;;;;;;50.30;27.38;;;;;;;7.32;62.53;100764.13;5058952;28;20071;-42
2022/03/09 02:27:39;;;;;;;47.50;26.63;;;;;;;7.34;62.60;100764.78;5057795;28;20103;-42
2022/03/09 02:30:07;;;;;;;43.40;23.50;;;;;;;7.34;62.18;100768.28;5058165;28;20021;-42
2022/03/09 02:32:32;;;;;;;45.20;26.30;;;;;;;7.35;62.73;100771.78;5039910;28;20029;-44
2022/03/09 02:34:58;;;;;;;45.53;26.10;;;;;;;7.34;63.84;100770.13;5023550;28;20453;-42
2022/03/09 02:37:24;;;;;;;45.05;25.52;;;;;;;7.22;63.51;100747.38;5040545;28;20090;-42
2022/03/09 02:39:50;;;;;;;59.78;28.38;;;;;;;7.40;63.46;100776.63;5057892;28;20039;-42
2022/03/09 02:42:16;;;;;;;48.72;25.38;;;;;;;7.31;63.18;100760.59;5039975;28;20060;-42
2022/03/09 02:44:42;;;;;;;46.97;27.20;;;;;;;7.45;63.38;100769.78;5057507;28;20040;-44
2022/03/09 02:47:08;;;;;;;53.65;27.80;;;;;;;7.47;63.63;100764.28;5056785;28;20075;-42
2022/03/09 02:49:34;;;;;;;48.20;25.08;;;;;;;7.48;63.29;100764.09;5056910;28;20083;-42
2022/03/09 02:52:00;;;;;;;48.45;28.10;;;;;;;7.48;63.30;100769.44;5056294;28;20057;-42
2022/03/09 02:54:26;;;;;;;55.47;27.92;;;;;;;7.46;64.05;100773.28;5056253;28;20029;-46
2022/03/09 02:56:51;;;;;;;53.97;28.15;;;;;;;7.49;63.75;100781.00;5038742;28;20040;-45
2022/03/09 02:59:17;;;;;;;50.80;26.50;;;;;;;7.48;63.40;100772.13;5056740;28;20219;-48
2022/03/09 03:01:43;;;;;;;51.55;27.38;;;;;;;7.51;63.87;100770.97;5056685;28;20434;-42
2022/03/09 03:04:09;;;;;;;51.15;27.38;;;;;;;7.50;63.93;100775.50;5056696;28;20021;-42
2022/03/09 03:06:35;;;;;;;49.03;27.40;;;;;;;7.52;64.13;100775.28;5038429;28;20054;-42
2022/03/09 03:09:00;;;;;;;53.22;27.83;;;;;;;7.55;64.06;100780.31;5057592;28;20063;-43
2022/03/09 03:11:26;;;;;;;51.40;28.38;;;;;;;7.48;64.10;100774.78;5056574;28;20044;-47
2022/03/09 03:13:52;;;;;;;57.13;29.30;;;;;;;7.54;64.99;100770.63;5056724;28;20037;-48
2022/03/09 03:16:18;;;;;;;47.38;27.63;;;;;;;7.57;64.60;100778.31;5055535;28;20492;-46
2022/03/09 03:18:44;;;;;;;50.55;27.52;;;;;;;7.59;65.65;100767.47;5055755;28;20039;-42
2022/03/09 03:21:09;;;;;;;51.38;25.88;;;;;;;7.56;65.11;100760.63;5055024;28;20119;-42
2022/03/09 03:23:36;;;;;;;43.28;25.05;;;;;;;7.57;64.72;100763.09;5056267;28;20041;-42
2022/03/09 03:26:03;;;;;;;44.65;25.20;;;;;;;7.60;65.22;100751.25;5055678;28;20097;-43
2022/03/09 03:28:29;;;;;;;53.95;27.35;;;;;;;7.56;66.57;100756.09;5055700;28;20037;-42
2022/03/09 03:30:55;;;;;;;49.47;26.55;;;;;;;7.56;66.01;100755.28;5055773;28;20699;-42
2022/03/09 03:33:22;;;;;;;43.20;25.13;;;;;;;7.56;65.57;100740.06;5055961;28;20033;-42
2022/03/09 03:35:49;;;;;;;48.05;25.35;;;;;;;7.64;67.00;100747.25;5038165;28;20043;-42
2022/03/09 03:38:15;;;;;;;53.33;26.83;;;;;;;7.63;66.66;100747.41;5055779;28;20025;-43
2022/03/09 03:40:41;;;;;;;51.05;25.90;;;;;;;7.57;67.56;100739.06;5055742;28;20033;-42
2022/03/09 03:43:07;;;;;;;44.95;24.38;;;;;;;7.66;66.88;100752.44;5055424;28;20033;-42
2022/03/09 03:45:33;;;;;;;43.22;24.13;;;;;;;7.62;67.16;100745.75;5055744;28;20078;-42
2022/03/09 03:47:59;;;;;;;44.80;23.75;;;;;;;7.60;67.41;100739.75;5037663;28;20453;-43
2022/03/09 03:50:25;;;;;;;42.03;23.55;;;;;;;7.58;66.93;100734.56;5037751;28;20056;-41
2022/03/09 03:52:51;;;;;;;37.97;23.08;;;;;;;7.72;67.18;100757.09;5073942;28;20445;-42
2022/03/09 03:55:17;;;;;;;41.65;23.45;;;;;;;7.77;67.23;100752.09;5075382;28;20456;-42
2022/03/09 03:57:43;;;;;;;44.10;25.35;;;;;;;7.78;67.39;100752.91;5075556;28;20044;-42
2022/03/09 04:00:10;;;;;;;43.55;24.13;;;;;;;7.69;68.08;100733.38;5073903;28;20537;-42
2022/03/09 04:02:37;;;;;;;44.13;24.17;;;;;;;7.74;68.06;100734.56;5074320;28;20059;-44
2022/03/09 04:05:05;;;;;;;44.03;23.48;;;;;;;7.68;68.45;100729.88;5075334;28;20107;-42
2022/03/09 04:07:32;;;;;;;48.28;23.98;;;;;;;7.69;68.44;100731.56;5075348;28;20054;-41
2022/03/09 04:09:58;;;;;;;41.03;24.27;;;;;;;7.69;69.06;100725.34;5074907;28;20029;-42
2022/03/09 04:12:24;;;;;;;44.83;21.85;;;;;;;7.67;69.31;100730.03;5074605;28;20028;-41
2022/03/09 04:14:51;;;;;;;43.83;22.77;;;;;;;7.61;69.39;100712.00;5074657;28;20115;-42
2022/03/09 04:17:16;;;;;;;45.00;23.23;;;;;;;7.69;69.60;100722.66;5074992;28;20028;-43
2022/03/09 04:19:42;;;;;;;38.08;22.40;;;;;;;7.72;69.93;100723.16;5074382;28;20029;-41
2022/03/09 04:22:08;;;;;;;41.25;22.05;;;;;;;7.75;70.22;100728.19;5074324;28;20098;-42
2022/03/09 04:24:34;;;;;;;39.38;21.02;;;;;;;7.62;71.00;100709.16;5073509;28;20444;-41
2022/03/09 04:27:00;;;;;;;33.50;18.95;;;;;;;7.71;70.80;100728.72;5073694;28;20126;-42
2022/03/09 04:29:26;;;;;;;35.70;17.58;;;;;;;7.59;71.45;100704.16;5073319;28;20033;-41
2022/03/09 04:31:51;;;;;;;36.38;19.88;;;;;;;7.47;73.38;100697.50;5074163;28;20392;-43
2022/03/09 04:34:17;;;;;;;32.92;19.90;;;;;;;7.40;72.67;100704.50;5074532;28;20039;-41
2022/03/09 04:36:43;;;;;;;37.50;19.90;;;;;;;7.28;73.01;100695.97;5074888;28;20028;-41
2022/03/09 04:39:09;;;;;;;39.28;19.58;;;;;;;7.24;73.07;100714.16;5074476;28;20086;-41
2022/03/09 04:41:34;;;;;;;35.75;20.02;;;;;;;7.20;73.59;100717.34;5074339;28;20028;-42
2022/03/09 04:44:00;;;;;;;34.28;20.25;;;;;;;7.17;73.42;100710.50;5073220;28;20032;-42
2022/03/09 04:46:26;;;;;;;35.75;20.55;;;;;;;7.09;73.48;100716.63;5074669;28;20456;-42
2022/03/09 04:48:52;;;;;;;40.80;22.67;;;;;;;7.03;74.95;100719.97;5074416;28;20035;-45
2022/03/09 04:51:18;;;;;;;42.13;21.48;;;;;;;6.95;74.78;100717.31;5066765;28;20045;-41
2022/03/09 04:53:44;;;;;;;34.47;21.88;;;;;;;6.99;76.00;100715.97;5020203;28;20063;-41
2022/03/09 04:56:11;;;;;;;35.28;21.23;;;;;;;7.01;75.48;100713.97;5054660;28;20060;-42
2022/03/09 04:58:37;;;;;;;37.20;20.95;;;;;;;7.12;75.29;100710.97;5054085;28;20024;-42
2022/03/09 05:01:03;;;;;;;36.90;21.05;;;;;;;7.17;74.57;100714.00;5054257;28;20078;-43
2022/03/09 05:03:30;;;;;;;44.42;22.27;;;;;;;7.24;74.17;100718.66;5054011;28;20052;-42
2022/03/09 05:05:56;;;;;;;45.35;20.92;;;;;;;7.27;74.70;100723.69;5036452;28;20159;-43
2022/03/09 05:08:22;;;;;;;41.92;22.40;;;;;;;7.28;74.69;100731.53;5054080;28;20385;-42
2022/03/09 05:10:48;;;;;;;39.42;24.00;;;;;;;7.27;73.99;100723.69;5036206;28;20033;-42
2022/03/09 05:13:14;;;;;;;38.03;22.38;;;;;;;7.36;73.29;100736.88;5036266;28;20025;-42
2022/03/09 05:15:40;;;;;;;46.03;23.25;;;;;;;7.44;73.69;100751.25;5054114;28;20238;-45
2022/03/09 05:18:05;;;;;;;41.60;22.60;;;;;;;7.40;73.59;100745.41;5035984;28;20119;-43
2022/03/09 05:20:31;;;;;;;41.03;23.58;;;;;;;7.43;72.88;100753.09;5054346;28;20029;-44
2022/03/09 05:22:57;;;;;;;36.10;21.33;;;;;;;7.48;72.39;100764.09;5053881;28;20724;-42
2022/03/09 05:25:23;;;;;;;36.05;22.30;;;;;;;7.49;72.53;100759.63;5035995;28;20429;-42
2022/03/09 05:27:49;;;;;;;41.80;22.10;;;;;;;7.46;72.61;100760.75;5054047;28;20029;-42
2022/03/09 05:30:15;;;;;;;37.17;21.48;;;;;;;7.43;72.85;100763.78;5035895;28;20033;-44
2022/03/09 05:32:42;;;;;;;50.40;23.60;;;;;;;7.52;73.42;100778.81;5053977;28;20546;-43
2022/03/09 05:35:09;;;;;;;37.33;22.17;;;;;;;7.55;72.84;100780.31;5036616;28;20036;-43
2022/03/09 05:37:37;;;;;;;38.38;19.73;;;;;;;7.51;72.83;100776.31;5054019;28;20029;-43
2022/03/09 05:40:04;;;;;;;43.65;24.20;;;;;;;7.49;73.04;100787.16;5036967;28;20021;-43
2022/03/09 05:42:29;;;;;;;49.25;23.90;;;;;;;7.49;72.72;100783.66;5053981;28;20108;-43
2022/03/09 05:44:55;;;;;;;39.50;23.83;;;;;;;7.56;72.67;100796.19;5055322;28;20061;-40
2022/03/09 05:47:21;;;;;;;40.60;24.20;;;;;;;7.60;72.25;100794.03;5057919;28;20033;-40
2022/03/09 05:49:47;;;;;;;44.00;23.27;;;;;;;7.59;72.34;100799.53;5039524;28;20035;-40
2022/03/09 05:52:12;;;;;;;43.97;22.52;;;;;;;7.56;72.26;100793.53;5057748;28;20045;-42
2022/03/09 05:54:38;;;;;;;42.75;23.15;;;;;;;7.57;73.16;100795.19;5023029;28;20121;-42
2022/03/09 05:57:04;;;;;;;43.90;23.25;;;;;;;7.59;72.82;100800.34;5057292;28;20431;-41
2022/03/09 05:59:30;;;;;;;45.80;24.33;;;;;;;7.62;72.66;100807.22;5039726;28;20029;-41
2022/03/09 06:01:56;;;;;;;37.55;21.38;;;;;;;7.61;71.62;100801.03;5057143;28;20036;-42
2022/03/09 06:04:21;;;;;;;42.88;24.05;;;;;;;7.51;73.23;100784.34;5022820;28;20033;-41
2022/03/09 06:06:47;;;;;;;39.60;22.30;;;;;;;7.61;72.74;100795.69;5040303;28;20037;-41
2022/03/09 06:09:13;;;;;;;46.45;24.58;;;;;;;7.59;72.82;100796.88;5039952;28;20029;-40
2022/03/09 06:11:41;;;;;;;45.28;22.20;;;;;;;7.61;72.54;100801.03;5058076;28;20029;-43
2022/03/09 06:14:07;;;;;;;45.90;23.08;;;;;;;7.65;72.91;100815.75;5058098;28;20239;-41
2022/03/09 06:16:33;;;;;;;36.38;21.25;;;;;;;7.68;72.29;100822.59;5057864;28;20108;-42
2022/03/09 06:18:59;;;;;;;39.17;23.27;;;;;;;7.61;72.74;100813.56;5055903;28;20070;-41
2022/03/09 06:21:24;;;;;;;41.22;22.77;;;;;;;7.69;73.03;100826.94;5022787;28;20473;-45
2022/03/09 06:23:50;;;;;;;42.05;23.10;;;;;;;7.52;72.82;100792.19;5023343;28;20143;-43
2022/03/09 06:26:16;;;;;;;42.25;20.73;;;;;;;7.64;72.67;100816.75;5039215;28;20044;-43
2022/03/09 06:28:42;;;;;;;37.45;22.27;;;;;;;7.69;73.21;100818.91;5057117;28;20055;-42
2022/03/09 06:31:08;;;;;;;39.78;23.30;;;;;;;7.59;73.71;100804.88;5057187;28;20170;-41
2022/03/09 06:33:34;;;;;;;38.50;22.00;;;;;;;7.68;73.25;100819.94;5039088;28;20397;-42
2022/03/09 06:36:00;;;;;;;37.92;22.77;;;;;;;7.62;73.27;100812.59;5056906;28;20056;-43
2022/03/09 06:38:26;;;;;;;41.78;21.95;;;;;;;7.61;73.37;100824.25;5057211;28;20131;-43
2022/03/09 06:40:51;;;;;;;33.95;20.40;;;;;;;7.61;73.37;100829.59;5039533;28;20060;-43
2022/03/09 06:43:17;;;;;;;43.13;22.30;;;;;;;7.63;73.13;100823.06;5056812;28;20029;-43
2022/03/09 06:45:43;;;;;;;42.00;22.98;;;;;;;7.62;73.98;100833.97;5056896;28;20040;-42
2022/03/09 06:48:10;;;;;;;46.90;22.50;;;;;;;7.63;73.90;100836.44;5056555;28;20531;-43
2022/03/09 06:50:35;;;;;;;38.83;19.63;;;;;;;7.66;73.31;100830.78;5056114;28;20033;-42
2022/03/09 06:53:02;;;;;;;42.30;20.60;;;;;;;7.57;73.98;100816.56;5055428;28;20029;-43
2022/03/09 06:55:28;;;;;;;38.95;19.65;;;;;;;7.65;74.29;100833.59;5056528;28;20198;-44
2022/03/09 06:57:54;;;;;;;37.67;20.55;;;;;;;7.68;74.66;100822.59;5039077;28;20481;-43
2022/03/09 07:00:22;;;;;;;40.30;19.17;;;;;;;7.72;73.46;100831.94;5038869;28;20070;-45
2022/03/09 07:02:48;;;;;;;34.92;19.75;;;;;;;7.75;73.39;100832.47;5056860;28;20040;-43
2022/03/09 07:05:14;;;;;;;33.65;18.65;;;;;;;7.51;74.43;100797.69;5056438;28;20392;-43
2022/03/09 07:07:41;;;;;;;37.45;18.75;;;;;;;7.69;74.42;100822.44;5056435;28;20029;-43
2022/03/09 07:10:11;;;;;;;30.52;16.33;;;;;;;7.72;73.90;100824.75;5056827;28;20033;-45
2022/03/09 07:12:38;;;;;;;38.72;16.77;;;;;;;7.70;74.11;100824.09;5038054;28;20110;-44
2022/03/09 07:15:04;;;;;;;33.13;15.38;;;;;;;7.83;74.07;100836.97;5056280;28;20025;-45
2022/03/09 07:17:30;;;;;;;26.73;14.40;;;;;;;7.84;74.51;100841.31;5055745;28;20563;-44
2022/03/09 07:19:56;;;;;;;24.70;13.50;;;;;;;7.82;74.18;100829.09;5056249;28;20108;-47
2022/03/09 07:22:22;;;;;;;27.10;13.27;;;;;;;7.84;74.89;100851.19;5038255;28;20465;-43
2022/03/09 07:24:48;;;;;;;30.17;11.50;;;;;;;7.84;75.29;100840.50;5056466;28;20033;-42
2022/03/09 07:27:14;;;;;;;27.85;10.50;;;;;;;7.87;75.58;100845.50;5056397;28;20412;-43
2022/03/09 07:29:41;;;;;;;18.08;7.07;;;;;;;7.94;74.55;100844.66;5055778;28;20029;-42
2022/03/09 07:32:08;;;;;;;21.55;7.72;;;;;;;7.96;75.92;100849.84;5038544;28;20044;-42
2022/03/09 07:34:35;;;;;;;22.90;5.70;;;;;;;8.02;75.53;100859.88;5056534;28;20035;-44
2022/03/09 07:37:00;;;;;;;17.17;5.25;;;;;;;8.07;74.95;100844.16;5056421;28;20029;-42
2022/03/09 07:39:28;;;;;;;14.15;4.82;;;;;;;8.10;75.08;100845.69;5037724;28;20033;-42
2022/03/09 07:41:55;;;;;;;15.55;3.60;;;;;;;8.10;74.09;100843.00;5055816;28;20037;-43
2022/03/09 07:44:22;;;;;;;19.23;4.15;;;;;;;8.01;74.12;100825.28;5037921;28;20330;-42
2022/03/09 07:46:48;;;;;;;27.70;4.60;;;;;;;8.07;74.30;100832.63;5037734;28;20040;-46
2022/03/09 07:49:15;;;;;;;16.75;3.92;;;;;;;8.27;73.53;100852.69;5055804;28;20021;-45
2022/03/09 07:51:41;;;;;;;17.58;4.40;;;;;;;8.40;72.80;100837.94;5055260;28;20128;-47
2022/03/09 07:54:07;;;;;;;30.15;4.18;;;;;;;8.37;72.97;100836.44;5055605;28;20526;-47
2022/03/09 07:56:35;;;;;;;18.80;4.40;;;;;;;8.44;72.92;100845.47;5055393;28;20021;-44
2022/03/09 07:59:03;;;;;;;20.48;4.05;;;;;;;8.49;72.86;100835.13;5055018;28;20029;-42
2022/03/09 08:01:29;;;;;;;20.83;4.40;;;;;;;8.50;73.05;100842.13;5037514;28;20029;-42
2022/03/09 08:03:54;;;;;;;21.67;4.13;;;;;;;8.51;72.52;100835.78;5055142;28;20033;-43
2022/03/09 08:06:20;;;;;;;18.65;3.85;;;;;;;8.49;72.69;100845.81;5037632;28;20033;-42
2022/03/09 08:08:47;;;;;;;14.57;3.58;;;;;;;8.46;72.54;100830.09;5036344;28;20039;-43
2022/03/09 08:11:13;;;;;;;14.80;3.85;;;;;;;8.48;72.65;100832.59;5055461;28;20377;-43
2022/03/09 08:13:39;;;;;;;22.58;4.07;;;;;;;8.48;73.12;100833.44;5037595;28;20036;-44
2022/03/09 08:16:06;;;;;;;18.58;4.10;;;;;;;8.45;72.83;100819.56;5054868;28;20033;-43
2022/03/09 08:18:31;;;;;;;14.00;3.97;;;;;;;8.61;72.17;100837.41;5055240;28;20154;-45
2022/03/09 08:20:57;;;;;;;15.38;3.50;;;;;;;8.78;71.53;100843.56;5037566;28;20157;-47
2022/03/09 08:23:23;;;;;;;15.73;3.97;;;;;;;8.84;71.18;100829.47;5055346;28;20068;-42
2022/03/09 08:25:50;;;;;;;16.38;3.13;;;;;;;8.94;69.71;100827.44;5055126;28;20524;-43
2022/03/09 08:28:17;;;;;;;26.52;3.55;;;;;;;9.09;69.66;100851.66;5055074;28;20041;-43
2022/03/09 08:30:42;;;;;;;25.00;3.90;;;;;;;9.18;68.96;100855.97;5037421;28;20032;-47
2022/03/09 08:33:08;;;;;;;15.55;2.95;;;;;;;9.10;68.94;100823.81;5055172;28;20396;-43
2022/03/09 08:35:34;;;;;;;18.00;3.50;;;;;;;9.35;68.01;100851.34;5054568;28;20465;-46
2022/03/09 08:38:00;;;;;;;18.05;3.20;;;;;;;9.39;67.90;100846.47;5054771;28;20365;-45
2022/03/09 08:40:26;;;;;;;20.83;3.47;;;;;;;9.39;68.06;100841.94;5037046;28;20536;-46
2022/03/09 08:42:52;;;;;;;19.15;3.28;;;;;;;9.34;67.95;100851.53;5036756;28;20033;-45
2022/03/09 08:45:17;;;;;;;16.45;3.33;;;;;;;9.36;67.88;100845.00;5036805;28;20029;-43
2022/03/09 08:47:43;;;;;;;21.55;3.47;;;;;;;9.42;67.52;100844.28;5055147;28;20135;-43
2022/03/09 08:50:10;;;;;;;19.83;3.58;;;;;;;9.44;66.96;100850.28;5055350;28;20040;-42
2022/03/09 08:52:36;;;;;;;17.83;3.22;;;;;;;9.30;66.93;100834.94;5069144;28;20049;-43
2022/03/09 08:55:02;;;;;;;16.52;3.42;;;;;;;9.40;66.81;100848.97;5074790;28;20054;-44
2022/03/09 08:57:29;;;;;;;8.15;2.88;;;;;;;9.38;65.68;100851.00;5073662;28;20345;-42
2022/03/09 08:59:57;;;;;;;24.67;3.47;;;;;;;9.44;65.49;100849.47;5074371;28;20032;-43
2022/03/09 09:02:24;;;;;;;15.13;3.22;;;;;;;9.64;65.11;100863.25;5056141;28;20028;-43
2022/03/09 09:04:50;;;;;;;16.02;2.72;;;;;;;9.92;64.61;100860.00;5073121;28;20475;-44
2022/03/09 09:07:16;;;;;;;18.80;4.65;;;;;;;9.94;64.53;100853.47;5073515;28;20024;-45
2022/03/09 09:09:41;;;;;;;18.95;2.97;;;;;;;9.96;64.18;100853.31;5056506;28;20519;-46
2022/03/09 09:12:07;;;;;;;23.15;2.95;;;;;;;9.81;64.20;100859.44;5074078;28;20063;-45
2022/03/09 09:14:33;;;;;;;20.27;3.13;;;;;;;9.74;64.56;100847.75;5074182;28;20036;-44
2022/03/09 09:16:59;;;;;;;16.02;3.03;;;;;;;9.72;64.73;100857.81;5073789;28;20028;-45
2022/03/09 09:19:25;;;;;;;11.60;2.75;;;;;;;9.85;64.27;100851.88;5071709;28;20028;-43
2022/03/09 09:21:51;;;;;;;11.88;2.85;;;;;;;9.64;64.44;100839.13;5074430;28;20029;-43
2022/03/09 09:24:16;;;;;;;9.98;3.60;;;;;;;9.80;64.63;100863.13;5074112;28;20041;-44
2022/03/09 09:26:42;;;;;;;21.95;2.92;;;;;;;9.93;64.11;100856.34;5074562;28;20036;-43
2022/03/09 09:29:09;;;;;;;16.42;3.10;;;;;;;10.17;63.82;100853.44;5073773;28;20126;-45
2022/03/09 09:31:35;;;;;;;15.90;3.45;;;;;;;10.57;62.28;100861.34;5074288;28;20159;-44
2022/03/09 09:34:02;;;;;;;7.40;2.45;;;;;;;10.80;61.70;100850.50;5072768;28;20029;-45
2022/03/09 09:36:28;;;;;;;11.95;2.92;;;;;;;10.89;61.29;100845.88;5072213;28;20507;-43
2022/03/09 09:38:55;;;;;;;17.02;2.67;;;;;;;10.82;61.40;100851.13;5073756;28;20124;-44
2022/03/09 09:41:24;;;;;;;14.30;2.83;;;;;;;10.76;61.23;100851.88;5073505;28;20028;-43
2022/03/09 09:43:50;;;;;;;15.85;3.70;;;;;;;10.58;61.65;100854.94;5073984;28;20029;-43
2022/03/09 09:46:17;;;;;;;14.57;2.60;;;;;;;10.44;61.90;100860.09;5072328;28;20032;-43
2022/03/09 09:48:43;;;;;;;16.00;2.88;;;;;;;10.38;62.10;100858.16;5073625;28;20560;-46
2022/03/09 09:51:12;;;;;;;11.73;2.65;;;;;;;10.38;62.59;100868.03;5067623;28;20048;-44
2022/03/09 09:53:43;;;;;;;13.27;2.75;;;;;;;10.43;61.74;100868.34;5036256;28;20075;-45
2022/03/09 09:56:10;;;;;;;18.13;3.40;;;;;;;10.36;62.63;100862.03;5053867;28;20029;-45
2022/03/09 09:58:37;;;;;;;13.55;2.95;;;;;;;10.19;63.37;100853.25;5053247;28;20060;-45
2022/03/09 10:01:03;;;;;;;15.23;3.15;;;;;;;10.24;63.44;100856.25;5053363;28;20115;-44
2022/03/09 10:03:29;;;;;;;15.55;2.83;;;;;;;10.37;63.24;100866.41;5053565;28;20504;-44
2022/03/09 10:05:55;;;;;;;17.25;2.55;;;;;;;10.48;62.61;100849.84;5053652;28;20052;-43
2022/03/09 10:08:20;;;;;;;11.57;2.70;;;;;;;10.69;62.18;100865.22;5053527;28;20040;-48
2022/03/09 10:11:03;;;;;;;10.43;2.08;;;;;;;10.79;60.98;100865.78;5053403;28;20128;-44
2022/03/09 10:13:35;;;;;;;15.48;2.53;;;;;;;10.92;61.00;100862.44;5051969;28;20045;-44
2022/03/09 10:16:16;;;;;;;16.40;2.60;;;;;;;11.21;59.18;100858.06;5035679;28;20033;-45
2022/03/09 10:18:58;;;;;;;11.55;2.13;;;;;;;11.26;58.63;100857.50;5036736;28;20029;-44
2022/03/09 10:21:28;;;;;;;14.75;2.20;;;;;;;11.47;58.56;100860.22;5036717;28;20033;-48
2022/03/09 10:23:57;;;;;;;7.97;2.05;;;;;;;12.05;56.02;100851.28;5053471;28;20029;-45
2022/03/09 10:26:24;;;;;;;13.60;2.85;;;;;;;11.90;56.65;100859.44;5052078;28;20029;-46
2022/03/09 10:28:55;;;;;;;13.10;1.83;;;;;;;11.84;56.87;100862.88;5053478;28;20060;-44
2022/03/09 10:31:42;;;;;;;11.20;2.40;;;;;;;11.73;57.17;100858.84;5037520;28;20029;-47
2022/03/09 10:34:15;;;;;;;11.35;2.70;;;;;;;11.54;57.76;100852.22;5042462;28;20037;-44
2022/03/09 10:37:03;;;;;;;11.07;2.15;;;;;;;11.76;56.17;100847.69;5057187;28;20025;-45
2022/03/09 10:39:32;;;;;;;13.07;2.45;;;;;;;11.69;57.69;100853.00;5025384;28;20036;-46
2022/03/09 10:41:58;;;;;;;10.85;2.42;;;;;;;14.80;50.46;100827.66;5056977;28;20052;-44
2022/03/09 10:44:44;;;;;;;14.25;2.20;;;;;;;13.53;52.77;100838.47;5039378;28;20025;-46
2022/03/09 10:47:10;;;;;;;9.27;2.20;;;;;;;15.09;49.66;100813.59;5039670;28;20539;-44
2022/03/09 10:49:36;;;;;;;11.60;2.88;;;;;;;17.81;44.79;100818.47;5056811;28;20033;-47
2022/03/09 10:52:03;;;;;;;11.02;2.33;;;;;;;18.95;41.22;100804.56;5061243;28;20040;-44
2022/03/09 10:54:32;;;;;;;8.80;2.33;;;;;;;20.75;37.79;100799.44;5076327;28;20597;-44
2022/03/09 10:57:08;;;;;;;11.93;2.45;;;;;;;21.96;34.26;100799.34;5076607;28;20032;-45
2022/03/09 10:59:52;;;;;;;8.75;2.20;;;;;;;22.40;31.95;100797.22;5075420;28;20021;-46
2022/03/09 11:02:20;;;;;;;10.50;2.20;;;;;;;23.23;31.33;100790.19;5076693;28;20051;-49
2022/03/09 11:05:07;;;;;;;6.80;2.05;;;;;;;23.73;28.87;100799.56;5058319;28;20025;-47
2022/03/09 11:07:35;;;;;;;10.57;2.30;;;;;;;23.61;29.19;100781.75;5075514;28;20480;-46
2022/03/09 11:10:02;;;;;;;6.05;2.30;;;;;;;23.64;32.34;100808.63;5076434;28;20025;-45
2022/03/09 11:12:28;;;;;;;8.80;2.05;;;;;;;23.61;30.41;100804.50;5076115;28;20565;-45
2022/03/09 11:14:55;;;;;;;7.15;2.30;;;;;;;22.50;29.77;100795.63;5076216;28;20036;-47
2022/03/09 11:17:24;;;;;;;12.20;2.63;;;;;;;23.49;29.89;100809.41;5074859;28;20040;-45
2022/03/09 11:19:50;;;;;;;6.25;2.22;;;;;;;22.86;31.57;100804.81;5076665;28;20020;-47